Time;durP1;ratioP1;P1;durP2;ratioP2;P2;SDS_P1;SDS_P2;PMS_P1;PMS_P2;Temp;Humidity;BMP_temperature;BMP_pressure;BME280_temperature;BME280_humidity;BME280_pressure;Samples;Min_cycle;Max_cycle;Signal;HPM_P1;HPM_P2
2024/01/17 05:49:20;;;;;;;17.70;9.30;;;;;;;;;;21151751;27;20289;-73
2024/01/17 05:59:23;;;;;;;19.77;9.07;;;;;;;;;;21066725;28;20214;-72
2024/01/17 06:09:25;;;;;;;23.97;9.37;;;;;;;;;;21064937;28;20297;-73
2024/01/17 06:19:27;;;;;;;17.27;8.77;;;;;;;;;;21061617;28;20260;-73
2024/01/17 06:29:30;;;;;;;22.97;9.53;;;;;;;;;;21001947;28;20215;-73
2024/01/17 06:39:33;;;;;;;22.83;10.67;;;;;;;;;;21022531;28;20665;-74
2024/01/17 06:49:36;;;;;;;27.70;10.80;;;;;;;;;;20942176;28;20214;-73
2024/01/17 06:59:38;;;;;;;28.07;9.70;;;;;;;;;;20888514;28;20589;-74
2024/01/17 07:09:41;;;;;;;40.97;11.63;;;;;;;;;;20839709;28;20247;-73
2024/01/17 07:19:43;;;;;;;46.67;11.07;;;;;;;;;;20843202;28;20224;-71
2024/01/17 07:29:45;;;;;;;39.77;11.37;;;;;;;;;;20852337;28;20575;-70
2024/01/17 07:39:47;;;;;;;28.30;11.07;;;;;;;;;;20837700;28;20262;-71
2024/01/17 07:49:50;;;;;;;35.80;11.63;;;;;;;;;;20869885;28;20207;-70
2024/01/17 07:59:52;;;;;;;26.07;10.53;;;;;;;;;;20920105;28;20587;-68
2024/01/17 08:09:54;;;;;;;36.50;11.33;;;;;;;;;;20885150;28;20212;-72
2024/01/17 08:20:01;;;;;;;23.80;11.27;;;;;;;;;;20848249;28;20294;-72
2024/01/17 08:30:09;;;;;;;41.07;11.30;;;;;;;;;;20834151;28;20239;-71
2024/01/17 08:40:12;;;;;;;23.77;12.10;;;;;;;;;;20833174;28;20239;-72
2024/01/17 08:50:14;;;;;;;30.53;13.13;;;;;;;;;;20868689;28;20641;-70
2024/01/17 09:00:17;;;;;;;28.13;12.10;;;;;;;;;;20896651;28;20262;-72
2024/01/17 09:10:20;;;;;;;23.97;13.17;;;;;;;;;;20913380;28;20238;-68
2024/01/17 09:20:22;;;;;;;30.50;13.40;;;;;;;;;;20882084;28;20238;-68
2024/01/17 09:30:24;;;;;;;31.10;13.73;;;;;;;;;;20831167;28;20633;-72
2024/01/17 09:40:26;;;;;;;31.23;15.23;;;;;;;;;;20810486;28;20885;-73
2024/01/17 09:55:38;;;;;;;34.03;15.97;;;1.20;79.20;;;;;;20985066;28;20576;-72
2024/01/17 10:05:40;;;;;;;37.43;18.23;;;;;;;;;;20906582;28;20212;-72
2024/01/17 10:15:44;;;;;;;39.87;15.10;;;3.20;81.20;;;;;;20853641;28;20274;-73
2024/01/17 10:25:46;;;;;;;34.40;16.47;;;;;;;;;;20822485;28;20335;-73
2024/01/17 10:35:49;;;;;;;36.63;16.37;;;;;;;;;;20815864;28;20241;-72
2024/01/17 10:45:55;;;;;;;30.80;15.30;;;;;;;;;;20815468;28;20252;-72
2024/01/17 10:56:01;;;;;;;25.00;15.17;;;1.70;82.30;;;;;;20977699;28;20275;-71
2024/01/17 11:06:03;;;;;;;30.43;16.10;;;;;;;;;;20928463;28;20311;-70
2024/01/17 11:16:07;;;;;;;31.30;16.73;;;;;;;;;;20922093;28;20298;-71
2024/01/17 11:26:33;;;;;;;27.13;15.60;;;1.20;82.50;;;;;;20920280;28;20273;-70
2024/01/17 11:36:46;;;;;;;31.27;16.37;;;0.50;83.30;;;;;;20853126;28;20205;-73
2024/01/17 11:59:09;;;;;;;36.37;16.80;;;1.40;86.40;;;;;;20957122;28;20582;-70
2024/01/17 12:09:17;;;;;;;35.13;17.80;;;;;;;;;;20767548;28;20653;-70
2024/01/17 12:19:24;;;;;;;37.87;17.13;;;;;;;;;;20772259;28;20208;-70
2024/01/17 12:29:26;;;;;;;36.67;18.73;;;;;;;;;;20780602;28;20237;-71
2024/01/17 12:39:28;;;;;;;35.93;17.27;;;;;;;;;;20764907;28;20206;-75
2024/01/17 12:49:31;;;;;;;53.90;21.90;;;;;;;;;;20783949;28;21038;-71
2024/01/17 13:09:17;;;;;;;34.40;18.70;;;1.60;91.20;;;;;;20957311;28;20584;-72
2024/01/17 13:19:22;;;;;;;34.30;19.20;;;;;;;;;;20911032;28;20257;-76
2024/01/17 13:38:53;;;;;;;40.77;19.70;;;;;;;;;;20983488;28;20575;-73
2024/01/17 13:57:32;;;;;;;48.37;30.40;;;;;;;;;;21060986;28;20449;-73
2024/01/17 14:16:06;;;;;;;43.97;21.33;;;;;;;;;;20976190;28;20585;-72
2024/01/17 14:26:09;;;;;;;34.30;19.73;;;;;;;;;;20941183;28;20209;-72
2024/01/17 14:36:11;;;;;;;38.43;21.07;;;;;;;;;;20955128;28;20620;-72
2024/01/17 14:46:13;;;;;;;46.23;25.70;;;;;;;;;;20865696;28;20648;-72
2024/01/17 14:59:47;;;;;;;51.23;24.47;;;;;;;;;;21329284;27;20532;-74
2024/01/17 15:09:49;;;;;;;40.50;22.30;;;;;;;;;;21320727;27;20304;-72
2024/01/17 15:19:51;;;;;;;43.43;21.83;;;;;;;;;;21320648;27;20205;-72
2024/01/17 15:37:33;;;;;;;39.93;18.83;;;;;;;;;;21067493;28;20560;-71
2024/01/17 15:47:35;;;;;;;38.73;20.53;;;;;;;;;;21066976;28;20203;-74
2024/01/17 15:57:37;;;;;;;53.17;21.30;;;;;;;;;;21065904;28;20609;-73
2024/01/17 16:07:40;;;;;;;39.27;22.13;;;;;;;;;;21066074;28;20649;-72
2024/01/17 16:17:42;;;;;;;37.97;21.00;;;;;;;;;;21060341;28;20238;-70
2024/01/17 16:27:44;;;;;;;38.37;20.87;;;;;;;;;;21019417;28;20238;-70
2024/01/17 16:37:46;;;;;;;36.53;20.30;;;;;;;;;;21020663;28;20581;-71
2024/01/17 16:47:49;;;;;;;37.23;19.60;;;;;;;;;;20955334;28;20207;-71
2024/01/17 16:57:51;;;;;;;35.93;20.87;;;;;;;;;;21003445;28;20249;-72
2024/01/17 17:07:53;;;;;;;40.77;23.57;;;;;;;;;;21003683;28;20229;-71
2024/01/17 17:24:45;;;;;;;37.77;21.53;;;;;;;;;;20981442;28;20569;-70
2024/01/17 17:34:48;;;;;;;35.63;20.03;;;;;;;;;;20981975;28;20216;-73
2024/01/17 17:44:50;;;;;;;45.30;23.97;;;;;;;;;;20982839;28;20242;-67
2024/01/17 17:54:59;;;;;;;33.97;21.07;;;3.60;99.90;;;;;;20981449;28;20253;-70
2024/01/17 18:05:01;;;;;;;38.13;21.87;;;;;;;;;;20980665;28;20211;-71
2024/01/17 18:15:04;;;;;;;32.50;19.83;;;;;;;;;;20979873;28;20269;-71
2024/01/17 18:25:06;;;;;;;32.20;19.47;;;;;;;;;;20978613;28;20225;-70
2024/01/17 18:35:08;;;;;;;39.67;19.93;;;;;;;;;;20928821;28;20231;-69
2024/01/17 18:45:11;;;;;;;32.57;19.37;;;;;;;;;;20922820;28;20213;-74
2024/01/17 18:55:13;;;;;;;47.73;20.67;;;;;;;;;;20922055;28;20228;-73
2024/01/17 19:05:15;;;;;;;33.63;19.10;;;;;;;;;;20922289;28;20209;-70
2024/01/17 19:15:17;;;;;;;32.57;19.10;;;;;;;;;;20920977;28;20231;-71
2024/01/17 19:25:21;;;;;;;33.57;19.30;;;;;;;;;;20919549;28;20211;-70
2024/01/17 19:35:24;;;;;;;32.87;19.27;;;;;;;;;;20918804;28;20238;-70
2024/01/17 19:45:26;;;;;;;33.17;18.43;;;;;;;;;;20898232;28;20299;-73
2024/01/17 19:55:29;;;;;;;28.60;17.03;;;2.70;99.90;;;;;;20874075;28;20281;-75
2024/01/17 20:05:31;;;;;;;24.23;15.23;;;;;;;;;;20881962;28;20208;-79
2024/01/17 20:15:34;;;;;;;21.23;13.47;;;;;;;;;;20876622;28;20243;-75
2024/01/17 20:25:36;;;;;;;17.73;11.03;;;;;;;;;;20871758;28;20211;-75
2024/01/17 20:35:39;;;;;;;22.03;13.80;;;;;;;;;;20858255;28;20236;-75
2024/01/17 20:45:41;;;;;;;21.83;13.40;;;;;;;;;;20871913;28;20210;-76
2024/01/17 20:55:43;;;;;;;22.23;14.33;;;;;;;;;;20875155;28;20326;-77
2024/01/17 21:05:45;;;;;;;24.30;14.63;;;;;;;;;;20870043;28;20213;-76
2024/01/17 21:15:47;;;;;;;24.77;15.23;;;;;;;;;;20872085;28;20593;-74
2024/01/17 21:25:50;;;;;;;22.07;14.87;;;;;;;;;;20870011;28;20208;-73
2024/01/17 21:35:52;;;;;;;23.27;14.10;;;;;;;;;;20853128;28;20237;-74
2024/01/17 21:45:55;;;;;;;23.63;14.47;;;;;;;;;;20861734;28;20204;-72
2024/01/17 21:55:57;;;;;;;24.00;14.90;;;;;;;;;;20874108;28;20619;-73
2024/01/17 22:05:59;;;;;;;22.13;13.90;;;;;;;;;;20860026;28;20240;-73
2024/01/17 22:16:02;;;;;;;22.90;14.60;;;;;;;;;;20878639;28;20239;-74
2024/01/17 22:26:05;;;;;;;22.43;14.33;;;4.60;99.90;;;;;;20884212;28;20214;-73
2024/01/17 22:36:07;;;;;;;25.47;15.23;;;;;;;;;;20868274;28;20254;-72
2024/01/17 22:46:10;;;;;;;21.97;14.13;;;;;;;;;;20882541;28;20204;-73
2024/01/17 22:59:28;;;;;;;17.43;11.67;;;;;;;;;;21021153;27;21127;-75
2024/01/17 23:09:30;;;;;;;17.40;10.57;;;;;;;;;;21014270;28;20203;-73
2024/01/17 23:19:33;;;;;;;15.87;10.50;;;;;;;;;;20982156;28;20214;-74
2024/01/17 23:29:38;;;;;;;15.90;9.53;;;;;;;;;;20981992;28;20678;-74
2024/01/17 23:39:43;;;;;;;14.03;9.50;;;;;;;;;;20979869;28;20548;-75
2024/01/17 23:49:46;;;;;;;14.13;9.30;;;;;;;;;;20979579;28;20265;-74
2024/01/17 23:59:48;;;;;;;14.20;8.43;;;;;;;;;;20979373;28;20218;-75
